createdAt,value
2017-12-26T00:00:04.606Z,75.6
2017-12-26T00:15:04.613Z,75.7
2017-12-26T00:30:04.426Z,75.2
2017-12-26T00:45:04.519Z,74.5
2017-12-26T01:00:04.983Z,73.5
2017-12-26T01:15:04.983Z,74.7
2017-12-26T01:30:05.399Z,74.3
2017-12-26T01:45:05.366Z,74.4
2017-12-26T02:00:05.262Z,74.5
2017-12-26T02:15:05.381Z,75.3
2017-12-26T02:30:05.476Z,74.8
2017-12-26T02:45:05.432Z,74.5
2017-12-26T03:00:05.032Z,74.5
2017-12-26T03:15:04.580Z,74.8
2017-12-26T03:30:04.812Z,74.8
2017-12-26T03:45:06.171Z,74.9
2017-12-26T04:00:11.895Z,74.8
2017-12-26T04:15:04.331Z,75.7
2017-12-26T04:30:05.061Z,77.1
2017-12-26T04:45:04.923Z,77.1
2017-12-26T05:00:07.341Z,75.4
2017-12-26T05:15:04.977Z,76.2
2017-12-26T05:30:08.122Z,77.2
2017-12-26T05:45:04.473Z,76.8
2017-12-26T06:00:05.127Z,76.2
2017-12-26T06:15:05.084Z,74.8
2017-12-26T06:30:06.373Z,75.8
2017-12-26T06:45:04.622Z,75.5
2017-12-26T07:00:04.715Z,75.3
2017-12-26T07:15:06.344Z,75.7
2017-12-26T07:30:05.194Z,75.4
2017-12-26T07:45:08.387Z,75.6
2017-12-26T08:00:04.491Z,75.9
2017-12-26T08:15:40.524Z,76.4
2017-12-26T08:30:04.993Z,77.7
2017-12-26T08:45:12.134Z,78.2
2017-12-26T09:00:05.176Z,75.7
2017-12-26T09:15:04.968Z,75.9
2017-12-26T09:30:05.048Z,74.2
2017-12-26T09:45:05.177Z,74.8
2017-12-26T10:00:04.436Z,73.5
2017-12-26T10:15:05.076Z,71.2
2017-12-26T10:30:04.813Z,66.7
2017-12-26T10:45:04.907Z,67.3
2017-12-26T11:00:05.329Z,66.7
2017-12-26T11:15:04.510Z,67.5
2017-12-26T11:30:05.212Z,68.6
2017-12-26T11:45:05.321Z,67.8
2017-12-26T12:00:04.478Z,66
2017-12-26T12:15:05.192Z,66.1
2017-12-26T12:30:05.313Z,65.3
2017-12-26T12:45:04.811Z,65.8
2017-12-26T13:00:04.537Z,66.4
2017-12-26T13:15:04.652Z,65.9
2017-12-26T13:30:04.433Z,66.1
2017-12-26T13:45:04.860Z,65.7
2017-12-26T14:00:05.395Z,64.9
2017-12-26T14:15:06.261Z,64.9
2017-12-26T14:30:04.504Z,65.2
2017-12-26T14:45:11.052Z,65
2017-12-26T15:00:07.494Z,65.8
2017-12-26T15:15:04.841Z,63.6
2017-12-26T15:30:04.973Z,62.3
2017-12-26T15:45:04.795Z,61.8
2017-12-26T16:00:05.177Z,62.5
2017-12-26T16:15:04.649Z,61.7
2017-12-26T16:30:04.277Z,58.9
2017-12-26T16:45:04.680Z,59.9
2017-12-26T17:00:04.562Z,60.5
2017-12-26T17:15:04.447Z,60.2
2017-12-26T17:30:06.083Z,60.2
2017-12-26T17:45:04.959Z,59.9
2017-12-26T18:15:04.947Z,62.8
2017-12-26T18:30:05.053Z,63.2
2017-12-26T18:45:05.488Z,64.1
2017-12-26T19:00:04.826Z,64.9
2017-12-26T19:15:05.187Z,65.2
2017-12-26T19:30:07.672Z,66.4
2017-12-26T19:45:05.300Z,66.4
2017-12-26T20:00:05.387Z,66.7
2017-12-26T20:15:05.386Z,68.1
2017-12-26T20:30:05.088Z,68
2017-12-26T20:45:05.231Z,68.1
2017-12-26T21:00:05.857Z,68.5
2017-12-26T21:15:05.760Z,69.2
2017-12-26T21:30:05.149Z,69.2
2017-12-26T21:45:05.249Z,69.3
2017-12-26T22:00:07.825Z,69.1
2017-12-26T22:15:04.255Z,70.3
2017-12-26T22:30:04.588Z,70.5
2017-12-26T22:45:05.985Z,70.9
2017-12-26T23:00:05.733Z,71
2017-12-26T23:15:06.425Z,71.3
2017-12-26T23:30:04.701Z,71.7
2017-12-26T23:45:06.014Z,72.3
